createdAt,value
2018-07-13T00:00:12.850Z,99.99
2018-07-13T00:01:12.852Z,99.99
2018-07-13T00:02:12.857Z,99.99
2018-07-13T00:03:12.855Z,99.99
2018-07-13T00:04:12.855Z,99.99
2018-07-13T00:05:12.859Z,99.99
2018-07-13T00:06:12.880Z,99.99
2018-07-13T00:07:12.863Z,99.99
2018-07-13T00:08:12.865Z,99.99
2018-07-13T00:09:12.871Z,99.99
2018-07-13T00:10:12.872Z,99.99
2018-07-13T00:11:12.870Z,99.99
2018-07-13T00:12:12.875Z,99.99
2018-07-13T00:13:12.876Z,99.99
2018-07-13T00:14:12.880Z,99.99
2018-07-13T00:15:12.880Z,99.99
2018-07-13T00:16:12.883Z,99.99
2018-07-13T00:17:12.885Z,99.99
2018-07-13T00:18:12.882Z,99.99
2018-07-13T00:19:12.885Z,99.99
2018-07-13T00:20:12.888Z,99.99
2018-07-13T00:21:12.891Z,99.99
2018-07-13T00:22:12.891Z,99.99
2018-07-13T00:23:12.895Z,99.99
2018-07-13T00:24:12.897Z,99.99
2018-07-13T00:25:12.898Z,99.99
2018-07-13T00:26:12.899Z,99.99
2018-07-13T00:27:12.900Z,99.99
2018-07-13T00:28:12.905Z,99.99
2018-07-13T00:29:12.901Z,99.99
2018-07-13T00:30:12.906Z,99.99
2018-07-13T00:31:12.912Z,99.99
2018-07-13T00:32:12.910Z,99.99
2018-07-13T00:33:12.910Z,99.99
2018-07-13T00:34:12.916Z,99.99
2018-07-13T00:35:12.913Z,99.99
2018-07-13T00:36:12.917Z,99.99
2018-07-13T00:37:12.918Z,99.99
2018-07-13T00:38:12.934Z,99.99
2018-07-13T00:39:12.925Z,99.99
2018-07-13T00:40:12.923Z,99.99
2018-07-13T00:41:12.927Z,99.99
2018-07-13T00:42:12.927Z,99.99
2018-07-13T00:43:12.931Z,99.99
2018-07-13T00:44:12.928Z,99.99
2018-07-13T00:45:12.937Z,99.99
2018-07-13T00:46:12.931Z,99.99
2018-07-13T00:47:12.941Z,99.99
2018-07-13T00:48:12.932Z,99.99
2018-07-13T00:49:12.936Z,99.99
2018-07-13T00:50:12.956Z,99.99
2018-07-13T00:51:12.959Z,99.99
2018-07-13T00:52:13.036Z,99.99
2018-07-13T00:53:12.946Z,99.99
2018-07-13T00:54:12.945Z,99.99
2018-07-13T00:55:12.951Z,99.99
2018-07-13T00:56:12.949Z,99.99
2018-07-13T00:57:12.951Z,99.99
2018-07-13T00:58:12.952Z,99.99
2018-07-13T00:59:12.950Z,99.99
2018-07-13T01:00:12.952Z,99.99
2018-07-13T01:01:12.957Z,99.99
2018-07-13T01:02:12.959Z,99.99
2018-07-13T01:03:12.956Z,99.99
2018-07-13T01:04:12.964Z,99.99
2018-07-13T01:05:12.960Z,99.99
2018-07-13T01:06:12.969Z,99.99
2018-07-13T01:07:12.962Z,99.99
2018-07-13T01:08:12.967Z,99.99
2018-07-13T01:09:12.975Z,99.99
2018-07-13T01:10:12.974Z,99.99
2018-07-13T01:11:12.979Z,99.99
2018-07-13T01:12:12.971Z,99.99
2018-07-13T01:13:12.974Z,99.99
2018-07-13T01:14:12.976Z,99.99
2018-07-13T01:15:12.978Z,99.99
2018-07-13T01:16:12.977Z,99.99
2018-07-13T01:17:12.980Z,99.99
2018-07-13T01:18:12.978Z,99.99
2018-07-13T01:19:12.980Z,99.99
2018-07-13T01:20:12.989Z,99.99
2018-07-13T01:21:12.985Z,99.99
2018-07-13T01:22:13.003Z,99.99
2018-07-13T01:23:12.992Z,99.99
2018-07-13T01:24:13.005Z,99.99
2018-07-13T01:25:12.990Z,99.99
2018-07-13T01:26:12.992Z,99.99
2018-07-13T01:27:12.993Z,99.99
2018-07-13T01:28:12.993Z,99.99
2018-07-13T01:29:12.996Z,99.99
2018-07-13T01:30:12.995Z,99.99
2018-07-13T01:31:12.998Z,99.99
2018-07-13T01:32:13.000Z,99.99
2018-07-13T01:33:13.002Z,99.99
2018-07-13T01:34:13.001Z,99.99
2018-07-13T01:35:13.022Z,99.99
2018-07-13T01:36:13.026Z,99.99
2018-07-13T01:37:13.008Z,99.99
2018-07-13T01:38:13.006Z,99.99
2018-07-13T01:39:13.005Z,99.99
2018-07-13T01:40:13.012Z,99.99
2018-07-13T01:41:13.007Z,99.99
2018-07-13T01:42:13.016Z,99.99
2018-07-13T01:43:13.014Z,99.99
2018-07-13T01:44:13.011Z,99.99
2018-07-13T01:45:13.011Z,99.99
2018-07-13T01:46:13.019Z,99.99
2018-07-13T01:47:13.014Z,99.99
2018-07-13T01:48:13.017Z,99.99
2018-07-13T01:49:13.026Z,99.99
2018-07-13T01:50:13.019Z,99.99
2018-07-13T01:51:13.019Z,99.99
2018-07-13T01:52:13.021Z,99.99
2018-07-13T01:53:13.031Z,99.99
2018-07-13T01:54:13.022Z,99.99
2018-07-13T01:55:13.028Z,99.99
2018-07-13T01:56:13.024Z,99.99
2018-07-13T01:57:13.029Z,99.99
2018-07-13T01:58:13.028Z,99.99
2018-07-13T01:59:13.028Z,99.99
2018-07-13T02:00:13.031Z,99.99
2018-07-13T02:01:13.034Z,99.99
2018-07-13T02:02:13.033Z,99.99
2018-07-13T02:03:13.038Z,99.99
2018-07-13T02:04:13.037Z,99.99
2018-07-13T02:05:13.036Z,99.99
2018-07-13T02:06:13.037Z,99.99
2018-07-13T02:07:13.037Z,99.99
2018-07-13T02:08:13.041Z,99.99
2018-07-13T02:09:13.062Z,99.99
2018-07-13T02:10:13.042Z,99.99
2018-07-13T02:11:13.040Z,99.99
2018-07-13T02:12:13.049Z,99.99
2018-07-13T02:13:13.048Z,99.99
2018-07-13T02:14:13.046Z,99.99
2018-07-13T02:15:13.062Z,99.99
2018-07-13T02:16:13.047Z,99.99
2018-07-13T02:17:13.086Z,99.99
2018-07-13T02:18:13.051Z,99.99
2018-07-13T02:19:13.056Z,99.99
2018-07-13T02:20:13.059Z,99.99
2018-07-13T02:21:13.055Z,99.99
2018-07-13T02:22:13.059Z,99.99
2018-07-13T02:23:13.059Z,99.99
2018-07-13T02:24:13.064Z,99.99
2018-07-13T02:25:13.061Z,99.99
2018-07-13T02:26:13.059Z,99.99
2018-07-13T02:27:13.076Z,99.99
2018-07-13T02:28:13.061Z,99.99
2018-07-13T02:29:13.064Z,99.99
2018-07-13T02:30:13.067Z,99.99
2018-07-13T02:31:13.074Z,99.99
2018-07-13T02:32:13.066Z,99.99
2018-07-13T02:33:13.068Z,99.99
2018-07-13T02:34:13.075Z,99.99
2018-07-13T02:35:13.070Z,99.99
2018-07-13T02:36:13.071Z,99.99
2018-07-13T02:37:13.076Z,99.99
2018-07-13T02:38:13.072Z,99.99
2018-07-13T02:39:13.128Z,99.99
2018-07-13T02:40:13.074Z,99.99
2018-07-13T02:41:13.086Z,99.99
2018-07-13T02:42:13.081Z,99.99
2018-07-13T02:43:13.083Z,99.99
2018-07-13T02:44:13.079Z,99.99
2018-07-13T02:45:13.088Z,99.99
2018-07-13T02:46:13.090Z,99.99
2018-07-13T02:47:13.091Z,99.99
2018-07-13T02:48:13.105Z,99.99
2018-07-13T02:49:13.108Z,99.99
2018-07-13T02:50:13.093Z,99.99
2018-07-13T02:51:13.088Z,99.99
2018-07-13T02:52:13.095Z,99.99
2018-07-13T02:53:13.122Z,99.99
2018-07-13T02:54:13.091Z,99.99
2018-07-13T02:55:13.103Z,99.99
2018-07-13T02:56:13.094Z,99.99
2018-07-13T02:57:13.106Z,99.99
2018-07-13T02:58:13.098Z,99.99
2018-07-13T02:59:13.099Z,99.99
2018-07-13T03:00:13.107Z,99.99
2018-07-13T03:01:13.108Z,99.99
2018-07-13T03:02:13.106Z,99.99
2018-07-13T03:03:13.106Z,99.99
2018-07-13T03:04:13.107Z,99.99
2018-07-13T03:05:13.125Z,99.99
2018-07-13T03:06:13.107Z,99.99
2018-07-13T03:07:13.108Z,99.99
2018-07-13T03:08:13.117Z,99.99
2018-07-13T03:09:13.110Z,99.99
2018-07-13T03:10:13.111Z,99.99
2018-07-13T03:11:13.132Z,99.99
2018-07-13T03:12:13.115Z,99.99
2018-07-13T03:13:13.116Z,99.99
2018-07-13T03:14:13.120Z,99.99
2018-07-13T03:15:13.116Z,99.99
2018-07-13T03:16:13.123Z,99.99
2018-07-13T03:17:13.123Z,99.99
2018-07-13T03:18:13.131Z,99.99
2018-07-13T03:19:13.122Z,99.99
2018-07-13T03:20:13.123Z,99.99
2018-07-13T03:21:13.129Z,99.99
2018-07-13T03:22:13.239Z,99.99
2018-07-13T03:23:13.129Z,99.99
2018-07-13T03:24:13.132Z,99.99
2018-07-13T03:25:13.130Z,99.99
2018-07-13T03:26:13.131Z,99.99
2018-07-13T03:27:13.144Z,99.99
2018-07-13T03:28:13.130Z,99.99
2018-07-13T03:29:13.136Z,99.99
2018-07-13T03:30:13.134Z,99.99
2018-07-13T03:31:13.133Z,99.99
2018-07-13T03:32:13.143Z,99.99
2018-07-13T03:33:13.147Z,99.99
2018-07-13T03:34:13.140Z,99.99
2018-07-13T03:35:13.141Z,99.99
2018-07-13T03:36:13.144Z,99.99
2018-07-13T03:37:13.144Z,99.99
2018-07-13T03:38:13.145Z,99.99
2018-07-13T03:39:13.148Z,99.99
2018-07-13T03:40:13.147Z,99.99
2018-07-13T03:41:13.150Z,99.99
2018-07-13T03:42:13.149Z,99.99
2018-07-13T03:43:13.164Z,99.99
2018-07-13T03:44:13.152Z,99.99
2018-07-13T03:45:13.153Z,99.99
2018-07-13T03:46:13.157Z,99.99
2018-07-13T03:47:13.157Z,99.99
2018-07-13T03:48:13.223Z,99.99
2018-07-13T03:49:13.172Z,99.99
2018-07-13T03:50:13.163Z,99.99
2018-07-13T03:51:13.159Z,99.99
2018-07-13T03:52:13.164Z,99.99
2018-07-13T03:53:13.166Z,99.99
2018-07-13T03:54:13.181Z,99.99
2018-07-13T03:55:13.172Z,99.99
2018-07-13T03:56:13.170Z,99.99
2018-07-13T03:57:13.195Z,99.99
2018-07-13T03:58:13.176Z,99.99
2018-07-13T03:59:13.171Z,99.99
2018-07-13T04:00:13.170Z,99.99
2018-07-13T04:01:13.177Z,99.99
2018-07-13T04:02:13.176Z,99.99
2018-07-13T04:03:13.190Z,99.99
2018-07-13T04:04:13.177Z,99.99
2018-07-13T04:05:13.187Z,99.99
2018-07-13T04:06:13.182Z,99.99
2018-07-13T04:07:13.181Z,99.99
2018-07-13T04:08:13.189Z,99.99
2018-07-13T04:09:13.185Z,99.99
2018-07-13T04:10:13.190Z,99.99
2018-07-13T04:11:13.189Z,99.99
2018-07-13T04:12:13.201Z,99.99
2018-07-13T04:13:13.189Z,99.99
2018-07-13T04:14:13.192Z,99.99
2018-07-13T04:15:13.194Z,99.99
2018-07-13T04:16:13.210Z,99.99
2018-07-13T04:17:13.200Z,99.99
2018-07-13T04:18:13.205Z,99.99
2018-07-13T04:19:13.201Z,99.99
2018-07-13T04:20:13.203Z,99.99
2018-07-13T04:21:13.204Z,99.99
2018-07-13T04:22:13.206Z,99.99
2018-07-13T04:23:13.209Z,99.99
2018-07-13T04:24:13.209Z,99.99
2018-07-13T04:25:13.209Z,99.99
2018-07-13T04:26:13.220Z,99.99
2018-07-13T04:27:13.217Z,99.99
2018-07-13T04:28:13.218Z,99.99
2018-07-13T04:29:13.220Z,99.99
2018-07-13T04:30:13.220Z,99.99
2018-07-13T04:31:13.222Z,99.99
2018-07-13T04:32:13.220Z,99.99
2018-07-13T04:33:13.223Z,99.99
2018-07-13T04:34:13.264Z,99.99
2018-07-13T04:35:13.227Z,99.99
2018-07-13T04:36:13.231Z,99.99
2018-07-13T04:37:13.232Z,99.99
2018-07-13T04:38:13.235Z,99.99
2018-07-13T04:39:13.234Z,99.99
2018-07-13T04:40:13.236Z,99.99
2018-07-13T04:41:13.239Z,99.99
2018-07-13T04:42:13.243Z,99.99
2018-07-13T04:43:13.243Z,99.99
2018-07-13T04:44:13.245Z,99.99
2018-07-13T04:45:13.246Z,99.99
2018-07-13T04:46:13.252Z,99.99
2018-07-13T04:47:13.251Z,99.99
2018-07-13T04:48:13.252Z,99.99
2018-07-13T04:49:13.254Z,99.99
2018-07-13T04:50:13.276Z,99.99
2018-07-13T04:51:13.269Z,99.99
2018-07-13T04:52:13.259Z,99.99
2018-07-13T04:53:13.263Z,99.99
2018-07-13T04:54:13.264Z,99.99
2018-07-13T04:55:13.267Z,99.99
2018-07-13T04:56:13.268Z,99.99
2018-07-13T04:57:13.279Z,99.99
2018-07-13T04:58:13.274Z,99.99
2018-07-13T04:59:13.272Z,99.99
2018-07-13T05:00:13.275Z,99.99
2018-07-13T05:01:13.278Z,99.99
2018-07-13T05:02:13.282Z,99.99
2018-07-13T05:03:13.286Z,99.99
2018-07-13T05:04:13.284Z,99.99
2018-07-13T05:05:13.286Z,99.99
2018-07-13T05:06:13.342Z,99.99
2018-07-13T05:07:13.293Z,99.99
2018-07-13T05:08:13.295Z,99.99
2018-07-13T05:09:13.295Z,99.99
2018-07-13T05:10:13.302Z,99.99
2018-07-13T05:11:13.300Z,99.99
2018-07-13T05:12:13.299Z,99.99
2018-07-13T05:13:13.305Z,99.99
2018-07-13T05:14:13.306Z,99.99
2018-07-13T05:15:13.309Z,99.99
2018-07-13T05:16:13.311Z,99.99
2018-07-13T05:17:13.315Z,99.99
2018-07-13T05:18:13.315Z,99.99
2018-07-13T05:19:13.318Z,99.99
2018-07-13T05:20:13.321Z,99.99
2018-07-13T05:21:13.373Z,99.99
2018-07-13T05:22:13.326Z,99.99
2018-07-13T05:23:13.331Z,99.99
2018-07-13T05:24:13.337Z,99.99
2018-07-13T05:25:13.336Z,99.99
2018-07-13T05:26:13.338Z,99.99
2018-07-13T05:27:13.340Z,99.99
2018-07-13T05:28:13.342Z,99.99
2018-07-13T05:29:13.350Z,99.99
2018-07-13T05:30:13.379Z,99.99
2018-07-13T05:31:13.350Z,99.99
2018-07-13T05:32:13.354Z,99.99
2018-07-13T05:33:13.355Z,99.99
2018-07-13T05:34:13.361Z,99.99
2018-07-13T05:35:13.367Z,99.99
2018-07-13T05:36:13.373Z,99.99
2018-07-13T05:37:13.372Z,99.99
2018-07-13T05:38:13.372Z,99.99
2018-07-13T05:39:13.375Z,99.99
2018-07-13T05:40:13.377Z,99.99
2018-07-13T05:41:24.240Z,99.99
2018-07-13T05:43:06.784Z,99.99
2018-07-13T05:44:06.787Z,99.99
2018-07-13T05:45:59.652Z,99.99
2018-07-13T05:46:59.664Z,99.99
2018-07-13T05:48:52.580Z,99.99
2018-07-13T05:49:52.532Z,99.99
2018-07-13T05:50:52.541Z,99.99
2018-07-13T05:51:52.540Z,99.99
2018-07-13T05:52:52.557Z,99.99
2018-07-13T05:53:52.543Z,99.99
2018-07-13T05:54:52.548Z,99.99
2018-07-13T05:55:52.558Z,99.99
2018-07-13T05:56:52.555Z,99.99
2018-07-13T05:57:52.557Z,99.99
2018-07-13T05:58:52.559Z,99.99
2018-07-13T05:59:52.565Z,99.99
2018-07-13T06:00:52.570Z,99.99
2018-07-13T06:01:52.571Z,99.73
2018-07-13T06:02:52.575Z,99.63
2018-07-13T06:03:52.596Z,97.91
2018-07-13T06:04:52.584Z,97.24
2018-07-13T06:05:52.598Z,95.70
2018-07-13T06:06:52.588Z,94.93
2018-07-13T06:07:52.594Z,95.70
2018-07-13T06:08:52.609Z,95.31
2018-07-13T06:09:52.602Z,93.87
2018-07-13T06:10:52.604Z,94.26
2018-07-13T06:11:52.613Z,94.93
2018-07-13T06:12:52.613Z,93.68
2018-07-13T06:13:52.624Z,93.68
2018-07-13T06:14:52.628Z,93.87
2018-07-13T06:15:52.633Z,93.82
2018-07-13T06:16:52.630Z,93.91
2018-07-13T06:17:52.632Z,93.91
2018-07-13T06:18:52.637Z,94.01
2018-07-13T06:19:52.637Z,92.29
2018-07-13T06:20:52.639Z,91.03
2018-07-13T06:21:52.647Z,91.13
2018-07-13T06:22:52.649Z,91.52
2018-07-13T06:23:52.654Z,92.19
2018-07-13T06:24:52.666Z,92.47
2018-07-13T06:25:52.662Z,92.38
2018-07-13T06:26:52.668Z,91.22
2018-07-13T06:27:52.682Z,91.71
2018-07-13T06:28:52.686Z,91.90
2018-07-13T06:29:52.689Z,92.96
2018-07-13T06:30:52.684Z,94.30
2018-07-13T06:31:52.685Z,94.49
2018-07-13T06:32:52.690Z,95.07
2018-07-13T06:33:52.698Z,96.32
2018-07-13T06:34:52.699Z,96.90
2018-07-13T06:35:52.704Z,98.05
2018-07-13T06:36:52.707Z,97.28
2018-07-13T06:37:52.712Z,97.09
2018-07-13T06:38:52.715Z,95.75
2018-07-13T06:39:52.716Z,96.03
2018-07-13T06:40:52.722Z,97.86
2018-07-13T06:41:52.731Z,97.86
2018-07-13T06:42:52.730Z,97.38
2018-07-13T06:43:52.733Z,98.72
2018-07-13T06:44:52.786Z,99.44
2018-07-13T06:45:52.745Z,98.49
2018-07-13T06:46:52.765Z,98.72
2018-07-13T06:47:52.768Z,95.02
2018-07-13T06:48:52.757Z,93.87
2018-07-13T06:49:52.769Z,92.71
2018-07-13T06:50:52.851Z,92.22
2018-07-13T06:51:52.767Z,92.08
2018-07-13T06:52:52.773Z,91.94
2018-07-13T06:53:52.777Z,92.94
2018-07-13T06:54:52.780Z,92.76
2018-07-13T06:55:52.801Z,92.27
2018-07-13T06:56:52.854Z,91.21
2018-07-13T06:57:52.797Z,88.99
2018-07-13T06:58:52.801Z,87.20
2018-07-13T06:59:52.806Z,84.00
2018-07-13T07:00:52.887Z,80.99
2018-07-13T07:01:52.812Z,78.81
2018-07-13T07:02:52.825Z,75.17
2018-07-13T07:03:52.823Z,73.21
2018-07-13T07:04:52.838Z,68.85
2018-07-13T07:05:52.834Z,67.50
2018-07-13T07:06:52.841Z,69.01
2018-07-13T07:07:52.845Z,69.95
2018-07-13T07:08:52.852Z,70.76
2018-07-13T07:09:52.858Z,69.37
2018-07-13T07:10:52.863Z,70.62
2018-07-13T07:11:52.869Z,71.40
2018-07-13T07:12:52.875Z,70.98
2018-07-13T07:13:52.877Z,72.10
2018-07-13T07:14:52.888Z,73.03
2018-07-13T07:15:52.892Z,73.61
2018-07-13T07:16:52.898Z,74.83
2018-07-13T07:17:52.982Z,76.86
2018-07-13T07:18:52.912Z,76.86
2018-07-13T07:19:52.918Z,78.08
2018-07-13T07:20:52.925Z,78.85
2018-07-13T07:21:52.928Z,78.23
2018-07-13T07:22:52.936Z,78.77
2018-07-13T07:23:52.939Z,79.35
2018-07-13T07:24:52.946Z,78.96
2018-07-13T07:25:52.952Z,80.27
2018-07-13T07:26:52.958Z,80.56
2018-07-13T07:27:52.961Z,81.57
2018-07-13T07:28:52.970Z,82.82
2018-07-13T07:29:52.973Z,81.76
2018-07-13T07:30:52.980Z,80.18
2018-07-13T07:31:52.986Z,80.76
2018-07-13T07:32:52.990Z,80.79
2018-07-13T07:33:52.999Z,81.47
2018-07-13T07:34:53.007Z,82.43
2018-07-13T07:35:53.008Z,80.83
2018-07-13T07:36:53.015Z,80.05
2018-07-13T07:37:53.025Z,77.28
2018-07-13T07:38:53.025Z,76.16
2018-07-13T07:39:53.068Z,74.52
2018-07-13T07:40:53.035Z,75.48
2018-07-13T07:41:53.060Z,74.96
2018-07-13T07:42:53.049Z,75.64
2018-07-13T07:43:53.065Z,76.61
2018-07-13T07:44:53.060Z,78.15
2018-07-13T07:45:53.068Z,77.83
2018-07-13T07:46:53.073Z,78.21
2018-07-13T07:47:53.085Z,78.59
2018-07-13T07:48:53.085Z,78.79
2018-07-13T07:49:53.140Z,78.31
2018-07-13T07:50:53.099Z,76.57
2018-07-13T07:51:53.103Z,74.93
2018-07-13T07:52:53.109Z,73.86
2018-07-13T07:53:53.115Z,72.80
2018-07-13T07:54:53.122Z,71.10
2018-07-13T07:55:53.175Z,70.98
2018-07-13T07:56:53.133Z,69.98
2018-07-13T07:57:53.139Z,68.08
2018-07-13T07:58:53.168Z,65.85
2018-07-13T07:59:53.157Z,67.14
2018-07-13T08:00:53.162Z,63.40
2018-07-13T08:01:53.232Z,65.17
2018-07-13T08:02:53.174Z,62.65
2018-07-13T08:03:53.179Z,63.91
2018-07-13T08:04:53.190Z,62.75
2018-07-13T08:05:53.208Z,62.65
2018-07-13T08:06:53.636Z,61.10
2018-07-13T08:07:53.213Z,63.65
2018-07-13T08:08:53.228Z,62.39
2018-07-13T08:09:53.230Z,62.01
2018-07-13T08:10:53.248Z,61.10
2018-07-13T08:11:53.248Z,62.65
2018-07-13T08:12:53.255Z,62.33
2018-07-13T08:13:53.372Z,63.88
2018-07-13T08:14:53.276Z,62.13
2018-07-13T08:15:53.284Z,64.11
2018-07-13T08:16:53.319Z,61.29
2018-07-13T08:17:53.329Z,61.00
2018-07-13T08:18:53.317Z,61.39
2018-07-13T08:19:53.328Z,60.91
2018-07-13T08:20:53.335Z,59.16
2018-07-13T08:21:53.346Z,56.35
2018-07-13T08:22:53.358Z,58.39
2018-07-13T08:23:53.368Z,56.74
2018-07-13T08:24:53.378Z,58.97
2018-07-13T08:25:53.390Z,56.93
2018-07-13T08:26:53.400Z,56.74
2018-07-13T08:27:53.414Z,55.77
2018-07-13T08:28:53.422Z,57.44
2018-07-13T08:29:53.432Z,57.08
2018-07-13T08:30:53.444Z,54.56
2018-07-13T08:31:53.454Z,54.36
2018-07-13T08:32:53.467Z,55.73
2018-07-13T08:33:53.478Z,55.33
2018-07-13T08:34:53.490Z,55.63
2018-07-13T08:35:53.517Z,54.39
2018-07-13T08:36:53.517Z,52.74
2018-07-13T08:37:53.560Z,52.35
2018-07-13T08:38:53.538Z,54.00
2018-07-13T08:39:53.549Z,53.00
2018-07-13T08:40:53.566Z,52.62
2018-07-13T08:41:53.577Z,51.33
2018-07-13T08:42:53.588Z,52.30
2018-07-13T08:43:53.606Z,53.37
2018-07-13T08:44:53.613Z,55.41
2018-07-13T08:45:53.626Z,53.39
2018-07-13T08:46:53.639Z,51.53
2018-07-13T08:47:53.649Z,51.43
2018-07-13T08:48:53.663Z,52.98
2018-07-13T08:49:53.681Z,51.35
2018-07-13T08:50:53.688Z,50.56
2018-07-13T08:51:53.715Z,51.91
2018-07-13T08:52:53.718Z,52.50
2018-07-13T08:53:53.729Z,52.78
2018-07-13T08:54:53.758Z,51.43
2018-07-13T08:55:53.753Z,51.75
2018-07-13T08:56:53.769Z,52.30
2018-07-13T08:57:53.789Z,52.78
2018-07-13T08:58:53.797Z,54.24
2018-07-13T08:59:53.893Z,52.20
2018-07-13T09:00:53.829Z,52.98
2018-07-13T09:01:53.836Z,52.78
2018-07-13T09:02:53.859Z,52.30
2018-07-13T09:03:53.873Z,52.62
2018-07-13T09:04:53.872Z,53.30
2018-07-13T09:05:53.957Z,50.87
2018-07-13T09:06:53.900Z,50.68
2018-07-13T09:07:53.909Z,50.65
2018-07-13T09:08:53.924Z,50.65
2018-07-13T09:09:53.934Z,50.94
2018-07-13T09:10:54.080Z,51.43
2018-07-13T09:11:53.989Z,52.11
2018-07-13T09:12:54.030Z,51.33
2018-07-13T09:13:55.645Z,52.69
2018-07-13T09:14:53.997Z,52.62
2018-07-13T09:15:54.021Z,50.48
2018-07-13T09:16:54.019Z,51.26
2018-07-13T09:17:54.033Z,51.55
2018-07-13T09:18:54.045Z,50.80
2018-07-13T09:19:54.054Z,50.12
2018-07-13T09:20:54.066Z,49.82
2018-07-13T09:21:54.079Z,49.54
2018-07-13T09:22:54.092Z,49.73
2018-07-13T09:23:54.102Z,49.92
2018-07-13T09:24:54.121Z,48.47
2018-07-13T09:25:54.122Z,50.02
2018-07-13T09:26:54.133Z,47.78
2018-07-13T09:27:54.145Z,47.69
2018-07-13T09:28:54.153Z,48.95
2018-07-13T09:29:54.165Z,48.75
2018-07-13T09:30:54.174Z,48.57
2018-07-13T09:31:54.184Z,47.59
2018-07-13T09:32:54.192Z,49.34
2018-07-13T09:33:54.204Z,47.71
2018-07-13T09:34:54.227Z,47.59
2018-07-13T09:35:54.225Z,47.98
2018-07-13T09:36:54.245Z,47.61
2018-07-13T09:37:54.273Z,46.74
2018-07-13T09:38:54.252Z,45.87
2018-07-13T09:39:54.275Z,45.38
2018-07-13T09:40:54.271Z,46.55
2018-07-13T09:41:54.281Z,46.15
2018-07-13T09:42:54.290Z,46.15
2018-07-13T09:43:54.304Z,44.60
2018-07-13T09:44:54.312Z,44.51
2018-07-13T09:45:54.317Z,45.28
2018-07-13T09:46:54.514Z,47.13
2018-07-13T09:47:54.337Z,45.79
2018-07-13T09:48:54.345Z,45.01
2018-07-13T09:49:54.368Z,44.72
2018-07-13T09:50:54.376Z,44.62
2018-07-13T09:51:54.384Z,44.02
2018-07-13T09:52:54.386Z,44.99
2018-07-13T09:53:54.515Z,44.00
2018-07-13T09:54:54.418Z,43.30
2018-07-13T09:55:54.410Z,43.61
2018-07-13T09:56:54.421Z,44.00
2018-07-13T09:57:54.442Z,43.59
2018-07-13T09:58:54.444Z,43.68
2018-07-13T09:59:54.451Z,45.72
2018-07-13T10:00:54.543Z,45.26
2018-07-13T10:01:54.467Z,46.25
2018-07-13T10:02:54.474Z,45.38
2018-07-13T10:03:54.483Z,44.31
2018-07-13T10:04:54.496Z,44.87
2018-07-13T10:05:54.503Z,45.38
2018-07-13T10:06:54.510Z,45.26
2018-07-13T10:07:54.519Z,45.17
2018-07-13T10:08:54.528Z,45.87
2018-07-13T10:09:54.555Z,44.48
2018-07-13T10:10:54.548Z,44.68
2018-07-13T10:11:54.553Z,45.04
2018-07-13T10:12:54.562Z,45.07
2018-07-13T10:13:54.570Z,46.84
2018-07-13T10:14:54.580Z,46.64
2018-07-13T10:15:54.592Z,45.18
2018-07-13T10:16:54.597Z,46.35
2018-07-13T10:17:54.606Z,44.89
2018-07-13T10:18:54.616Z,45.97
2018-07-13T10:19:54.623Z,45.38
2018-07-13T10:20:54.637Z,46.28
2018-07-13T10:21:54.647Z,44.72
2018-07-13T10:22:54.658Z,45.31
2018-07-13T10:23:54.668Z,45.40
2018-07-13T10:24:54.664Z,44.43
2018-07-13T10:25:54.679Z,43.24
2018-07-13T10:26:54.708Z,45.18
2018-07-13T10:27:54.691Z,44.51
2018-07-13T10:28:54.701Z,45.60
2018-07-13T10:29:54.706Z,44.43
2018-07-13T10:30:54.721Z,44.24
2018-07-13T10:31:54.726Z,45.18
2018-07-13T10:32:54.735Z,46.77
2018-07-13T10:33:54.742Z,45.01
2018-07-13T10:34:54.749Z,45.40
2018-07-13T10:35:54.757Z,44.62
2018-07-13T10:36:54.786Z,45.32
2018-07-13T10:37:54.779Z,44.35
2018-07-13T10:38:54.785Z,44.33
2018-07-13T10:39:54.794Z,44.72
2018-07-13T10:40:54.802Z,45.40
2018-07-13T10:41:54.811Z,45.32
2018-07-13T10:42:54.837Z,45.62
2018-07-13T10:43:54.831Z,44.28
2018-07-13T10:44:54.838Z,44.57
2018-07-13T10:45:54.848Z,44.28
2018-07-13T10:46:54.855Z,43.38
2018-07-13T10:47:54.862Z,45.23
2018-07-13T10:48:54.871Z,44.18
2018-07-13T10:49:54.880Z,43.79
2018-07-13T10:50:54.888Z,43.48
2018-07-13T10:51:54.899Z,44.74
2018-07-13T10:52:54.908Z,43.70
2018-07-13T10:53:56.675Z,44.38
2018-07-13T10:54:54.932Z,44.09
2018-07-13T10:55:54.934Z,44.38
2018-07-13T10:56:54.991Z,42.91
2018-07-13T10:57:54.957Z,43.01
2018-07-13T10:58:54.961Z,43.21
2018-07-13T10:59:54.970Z,44.18
2018-07-13T11:00:54.982Z,43.67
2018-07-13T11:01:54.988Z,44.16
2018-07-13T11:02:55.004Z,43.58
2018-07-13T11:03:55.004Z,43.87
2018-07-13T11:04:55.015Z,44.35
2018-07-13T11:05:55.022Z,43.60
2018-07-13T11:06:55.034Z,43.58
2018-07-13T11:07:55.048Z,42.90
2018-07-13T11:08:55.050Z,43.58
2018-07-13T11:09:55.057Z,44.74
2018-07-13T11:10:55.065Z,44.26
2018-07-13T11:11:55.073Z,44.16
2018-07-13T11:12:55.085Z,44.26
2018-07-13T11:13:55.228Z,43.58
2018-07-13T11:14:57.679Z,44.84
2018-07-13T11:15:55.108Z,45.23
2018-07-13T11:16:55.118Z,44.67
2018-07-13T11:17:55.126Z,43.70
2018-07-13T11:18:55.141Z,43.70
2018-07-13T11:19:55.144Z,44.28
2018-07-13T11:20:55.152Z,44.20
2018-07-13T11:21:55.158Z,44.48
2018-07-13T11:22:55.168Z,44.65
2018-07-13T11:23:55.177Z,45.57
2018-07-13T11:24:55.185Z,46.25
2018-07-13T11:25:55.897Z,46.25
2018-07-13T11:26:55.206Z,46.77
2018-07-13T11:27:55.220Z,46.57
2018-07-13T11:28:55.222Z,46.30
2018-07-13T11:29:55.227Z,45.32
2018-07-13T11:30:55.237Z,45.81
2018-07-13T11:31:55.246Z,45.91
2018-07-13T11:32:55.268Z,46.40
2018-07-13T11:33:55.261Z,45.91
2018-07-13T11:34:55.285Z,45.32
2018-07-13T11:35:55.288Z,45.23
2018-07-13T11:36:55.384Z,45.23
2018-07-13T11:37:55.298Z,45.54
2018-07-13T11:38:55.304Z,44.89
2018-07-13T11:39:55.315Z,44.67
2018-07-13T11:40:55.320Z,44.01
2018-07-13T11:41:55.346Z,44.89
2018-07-13T11:42:55.340Z,43.71
2018-07-13T11:43:55.351Z,43.52
2018-07-13T11:44:55.354Z,43.81
2018-07-13T11:45:55.361Z,43.13
2018-07-13T11:46:55.371Z,42.84
2018-07-13T11:47:55.380Z,43.52
2018-07-13T11:48:55.388Z,44.38
2018-07-13T11:49:55.626Z,44.28
2018-07-13T11:50:55.942Z,44.55
2018-07-13T11:51:55.416Z,44.84
2018-07-13T11:52:55.424Z,46.11
2018-07-13T11:53:55.440Z,45.72
2018-07-13T11:54:55.525Z,44.45
2018-07-13T11:55:55.457Z,44.76
2018-07-13T11:56:55.459Z,44.28
2018-07-13T11:57:55.467Z,43.91
2018-07-13T11:58:55.475Z,43.89
2018-07-13T11:59:55.484Z,43.91
2018-07-13T12:00:55.494Z,43.33
2018-07-13T12:01:55.562Z,43.33
2018-07-13T12:02:55.510Z,43.62
2018-07-13T12:03:55.518Z,43.54
2018-07-13T12:04:55.526Z,43.05
2018-07-13T12:05:55.536Z,43.54
2018-07-13T12:06:55.545Z,43.15
2018-07-13T12:07:55.556Z,43.85
2018-07-13T12:08:55.576Z,42.00
2018-07-13T12:09:55.569Z,42.49
2018-07-13T12:10:55.587Z,42.38
2018-07-13T12:11:55.585Z,43.64
2018-07-13T12:12:55.656Z,44.62
2018-07-13T12:13:55.606Z,43.84
2018-07-13T12:14:55.613Z,42.18
2018-07-13T12:15:55.621Z,42.18
2018-07-13T12:16:55.634Z,41.89
2018-07-13T12:17:55.639Z,42.47
2018-07-13T12:18:55.654Z,42.98
2018-07-13T12:19:55.706Z,43.66
2018-07-13T12:20:55.667Z,42.79
2018-07-13T12:21:55.676Z,41.67
2018-07-13T12:22:55.683Z,42.84
2018-07-13T12:23:55.727Z,43.99
2018-07-13T12:24:55.697Z,44.28
2018-07-13T12:25:55.731Z,44.28
2018-07-13T12:26:55.732Z,45.35
2018-07-13T12:27:55.758Z,44.62
2018-07-13T12:28:55.736Z,44.53
2018-07-13T12:29:55.745Z,44.62
2018-07-13T12:30:55.758Z,44.72
2018-07-13T12:31:55.872Z,44.55
2018-07-13T12:32:55.780Z,44.45
2018-07-13T12:33:55.782Z,44.84
2018-07-13T12:34:55.785Z,44.26
2018-07-13T12:35:55.792Z,44.09
2018-07-13T12:36:55.820Z,43.30
2018-07-13T12:37:55.828Z,43.48
2018-07-13T12:38:55.822Z,44.57
2018-07-13T12:39:55.919Z,44.76
2018-07-13T12:40:55.837Z,44.28
2018-07-13T12:41:55.854Z,44.59
2018-07-13T12:42:57.709Z,44.59
2018-07-13T12:43:55.861Z,44.79
2018-07-13T12:44:58.711Z,44.20
2018-07-13T12:45:55.941Z,44.20
2018-07-13T12:46:55.889Z,44.30
2018-07-13T12:47:55.895Z,43.99
2018-07-13T12:48:56.000Z,44.10
2018-07-13T12:49:55.914Z,44.59
2018-07-13T12:50:55.921Z,44.76
2018-07-13T12:51:55.930Z,44.18
2018-07-13T12:52:55.939Z,44.09
2018-07-13T12:53:55.988Z,44.74
2018-07-13T12:54:55.959Z,45.21